Fairdale, WV (25839)

1:33 AM EDT on July 23, 2014 (GMT -0400)
Fairdale (KWVLESTE1) Elev 1938 ft | 37.74 °N, 81.35 °W | Change Station

Current weather conditions updated 8 seconds ago

Mostly Cloudy
Mostly Cloudy
65.8 °F
Feels Like 65.8 °F
N
0.0
Wind Variable Wind from SSE
Gusts 0.0 mph

Today is forecast to be Much Cooler than yesterday. Afternoon thunderstorms.

Today
High -- | Low -- °F
--% Chance of Precip.
Yesterday
High -- | Low -- °F
Precip. -- in
6:21 AM 8:42 PM
Waning Crescent, 12% visible
Pressure 30.06 in
Visibility 10.0 miles
Clouds Few 9000 ft
Dew Point 63 °F
Humidity 90%
Rainfall 0.00 in
Snow Depth Not available.
UV 0 out of 12
Pollen 4.10 out of 12
Air Quality Not available.
Flu Activity Not available.
METAR KBKW 230451Z AUTO 13005KT 10SM FEW090 22/17 A3017 RMK AO2 SLP177 T02170172 402940183 TSNO

More Conditions Fewer Conditions

Pressure 30.06 in
Visibility 10.0 miles
Clouds Few 9000 ft
Dew Point 63 °F
Humidity 90%
Rainfall 0.00 in
Snow Depth Not available.
UV 0 out of 12
Pollen 4.10 out of 12
Air Quality Not available.
Flu Activity Not available.
METAR KBKW 230451Z AUTO 13005KT 10SM FEW090 22/17 A3017 RMK AO2 SLP177 T02170172 402940183 TSNO

More Conditions Fewer Conditions

10-Day Weather Forecast

Almanac

Astronomy

Jul. 23, 2014 Rise Set
Actual Time 6:21 AM EDT 8:42 PM EDT
Civil Twilight 5:51 AM EDT 9:11 PM EDT
Nautical Twilight 5:15 AM EDT 9:48 PM EDT
Astronomical Twilight 4:34 AM EDT 10:28 PM EDT
Moon 3:39 AM EDT 6:09 PM EDT
Length of Visible Light 15h 20m
Length of Day
14h 20m
Tomorrow will be 1m 32s shorter.
Waning Crescent, 12% of the Moon is Illuminated
Today
Waning Crescent
Jul 26
New
Aug 3
First Quarter
Aug 10
Full
Aug 17
Last Quarter

Today's Extremes

State Highs State Lows

Community

WunderPhotos

Upload Photos

1,736,513 photos uploaded!

Nearby

Snow Depth

Station Depth Elevation
No new snow has been reported.

Earthquake Activity

City Distance Mag. Time & Date
No recent earthquake activity has been reported nearby.
Minimum magnitude displayed is 2.5.

Coastal Water Temperatures

Place Temperature
No Stations Reporting

Nearby Weather Stations

Station Location Temp. Dew Point Humidity Wind Precip. Elev Updated Type
Fairdale, Lester, WV 65.8 °F 63 °F 90% SSE  at  0.0 mph 0.00 in / hr 1938 ft 1:33 AM EDT Rapid Fire
Southeast Beckley, Beckley, WV 68.7 °F 65 °F 88% East  at  0.0 mph 0.00 in / hr 2365 ft 1:33 AM EDT Rapid Fire
Mullens, WV 68.4 °F 68 °F 99% SE  at  0.0 mph 0.00 in / hr 1585 ft 1:30 AM EDT Normal
RAWS GRANDVIEW WV, Prince, WV 71 °F 66 °F 85% ESE  at  1 mph 0.00 in / hr 2316 ft 12:05 AM EDT MADIS
F.I.T. - Oyler Ave., Oak Hill, WV 68.5 °F 67 °F 95% WNW  at  0.0 mph 0.00 in / hr 1988 ft 1:32 AM EDT Rapid Fire
Cool Ridge, Raleigh Co., WV 65.2 °F 64 °F 97% SE  at  0.0 mph 0.00 in / hr 2965 ft 1:32 AM EDT Rapid Fire
Flat Top Lake, Ghent, WV 67.3 °F 64 °F 89% SSE  at  0.0 mph - / hr 2969 ft 1:22 AM EDT Normal

Show More Stations Show Fewer Stations